sensor_id;sensor_type;location;lat;lon;timestamp;P1;durP1;ratioP1;P2;durP2;ratioP2
15938;SDS011;8068;51.322;9.450;2023-07-30T00:02:11;3.00;;;2.90;;
15938;SDS011;8068;51.322;9.450;2023-07-30T00:04:42;3.27;;;2.97;;
15938;SDS011;8068;51.322;9.450;2023-07-30T00:07:14;3.43;;;3.10;;
15938;SDS011;8068;51.322;9.450;2023-07-30T00:09:49;3.77;;;3.50;;
15938;SDS011;8068;51.322;9.450;2023-07-30T00:12:21;6.80;;;3.63;;
15938;SDS011;8068;51.322;9.450;2023-07-30T00:14:53;3.47;;;3.27;;
15938;SDS011;8068;51.322;9.450;2023-07-30T00:17:24;3.30;;;3.10;;
15938;SDS011;8068;51.322;9.450;2023-07-30T00:19:55;2.83;;;2.63;;
15938;SDS011;8068;51.322;9.450;2023-07-30T00:22:26;2.90;;;2.70;;
15938;SDS011;8068;51.322;9.450;2023-07-30T00:24:58;3.40;;;2.97;;
15938;SDS011;8068;51.322;9.450;2023-07-30T00:27:31;1.67;;;1.57;;
15938;SDS011;8068;51.322;9.450;2023-07-30T00:30:03;1.90;;;1.80;;
15938;SDS011;8068;51.322;9.450;2023-07-30T00:32:35;2.77;;;1.60;;
15938;SDS011;8068;51.322;9.450;2023-07-30T00:35:10;1.90;;;1.80;;
15938;SDS011;8068;51.322;9.450;2023-07-30T00:37:41;2.17;;;2.07;;
15938;SDS011;8068;51.322;9.450;2023-07-30T00:40:13;1.70;;;1.53;;
15938;SDS011;8068;51.322;9.450;2023-07-30T00:42:48;1.53;;;1.43;;
15938;SDS011;8068;51.322;9.450;2023-07-30T00:45:21;1.80;;;1.70;;
15938;SDS011;8068;51.322;9.450;2023-07-30T00:47:52;1.57;;;1.47;;
15938;SDS011;8068;51.322;9.450;2023-07-30T00:50:30;1.47;;;1.37;;
15938;SDS011;8068;51.322;9.450;2023-07-30T00:53:01;2.90;;;1.50;;
15938;SDS011;8068;51.322;9.450;2023-07-30T00:55:32;1.30;;;1.20;;
15938;SDS011;8068;51.322;9.450;2023-07-30T00:58:03;1.80;;;1.70;;
15938;SDS011;8068;51.322;9.450;2023-07-30T01:00:35;1.60;;;1.43;;
15938;SDS011;8068;51.322;9.450;2023-07-30T01:03:06;1.77;;;1.67;;
15938;SDS011;8068;51.322;9.450;2023-07-30T01:05:38;1.47;;;1.37;;
15938;SDS011;8068;51.322;9.450;2023-07-30T01:08:10;7.00;;;1.50;;
15938;SDS011;8068;51.322;9.450;2023-07-30T01:10:45;1.80;;;1.70;;
15938;SDS011;8068;51.322;9.450;2023-07-30T01:13:17;4.80;;;2.13;;
15938;SDS011;8068;51.322;9.450;2023-07-30T01:15:52;3.37;;;2.23;;
15938;SDS011;8068;51.322;9.450;2023-07-30T01:18:23;2.40;;;2.30;;
15938;SDS011;8068;51.322;9.450;2023-07-30T01:20:58;2.70;;;2.50;;
15938;SDS011;8068;51.322;9.450;2023-07-30T01:23:33;2.73;;;2.30;;
15938;SDS011;8068;51.322;9.450;2023-07-30T01:26:11;9.97;;;2.80;;
15938;SDS011;8068;51.322;9.450;2023-07-30T01:28:53;3.00;;;2.53;;
15938;SDS011;8068;51.322;9.450;2023-07-30T01:31:26;5.93;;;3.80;;
15938;SDS011;8068;51.322;9.450;2023-07-30T01:33:58;8.03;;;2.57;;
15938;SDS011;8068;51.322;9.450;2023-07-30T01:36:30;3.60;;;2.70;;
15938;SDS011;8068;51.322;9.450;2023-07-30T01:39:03;7.10;;;2.50;;
15938;SDS011;8068;51.322;9.450;2023-07-30T01:41:35;7.20;;;2.27;;
15938;SDS011;8068;51.322;9.450;2023-07-30T01:44:07;4.70;;;2.83;;
15938;SDS011;8068;51.322;9.450;2023-07-30T01:46:40;4.80;;;2.70;;
15938;SDS011;8068;51.322;9.450;2023-07-30T01:49:11;3.87;;;2.83;;
15938;SDS011;8068;51.322;9.450;2023-07-30T01:51:43;6.70;;;2.70;;
15938;SDS011;8068;51.322;9.450;2023-07-30T01:54:19;4.97;;;3.20;;
15938;SDS011;8068;51.322;9.450;2023-07-30T01:56:51;9.27;;;2.23;;
15938;SDS011;8068;51.322;9.450;2023-07-30T01:59:24;5.53;;;2.57;;
15938;SDS011;8068;51.322;9.450;2023-07-30T02:02:00;11.77;;;2.80;;
15938;SDS011;8068;51.322;9.450;2023-07-30T02:04:31;10.93;;;2.70;;
15938;SDS011;8068;51.322;9.450;2023-07-30T02:07:02;7.40;;;2.30;;
15938;SDS011;8068;51.322;9.450;2023-07-30T02:09:34;6.03;;;2.60;;
15938;SDS011;8068;51.322;9.450;2023-07-30T02:12:06;5.10;;;2.30;;
15938;SDS011;8068;51.322;9.450;2023-07-30T02:14:37;3.00;;;2.70;;
15938;SDS011;8068;51.322;9.450;2023-07-30T02:17:09;2.63;;;2.43;;
15938;SDS011;8068;51.322;9.450;2023-07-30T02:19:41;10.67;;;3.30;;
15938;SDS011;8068;51.322;9.450;2023-07-30T02:22:13;6.80;;;2.60;;
15938;SDS011;8068;51.322;9.450;2023-07-30T02:24:44;7.80;;;2.83;;
15938;SDS011;8068;51.322;9.450;2023-07-30T02:27:18;10.80;;;3.40;;
15938;SDS011;8068;51.322;9.450;2023-07-30T02:29:50;16.57;;;3.67;;
15938;SDS011;8068;51.322;9.450;2023-07-30T02:32:21;4.60;;;3.17;;
15938;SDS011;8068;51.322;9.450;2023-07-30T02:34:57;21.57;;;3.67;;
15938;SDS011;8068;51.322;9.450;2023-07-30T02:37:28;12.93;;;3.40;;
15938;SDS011;8068;51.322;9.450;2023-07-30T02:40:00;6.73;;;3.00;;
15938;SDS011;8068;51.322;9.450;2023-07-30T02:42:37;6.23;;;3.50;;
15938;SDS011;8068;51.322;9.450;2023-07-30T02:45:09;12.10;;;3.57;;
15938;SDS011;8068;51.322;9.450;2023-07-30T02:47:40;14.23;;;4.47;;
15938;SDS011;8068;51.322;9.450;2023-07-30T02:50:12;20.93;;;4.73;;
15938;SDS011;8068;51.322;9.450;2023-07-30T02:52:44;18.90;;;3.53;;
15938;SDS011;8068;51.322;9.450;2023-07-30T02:55:15;9.73;;;2.83;;
15938;SDS011;8068;51.322;9.450;2023-07-30T02:57:47;17.40;;;3.27;;
15938;SDS011;8068;51.322;9.450;2023-07-30T03:00:22;3.93;;;2.30;;
15938;SDS011;8068;51.322;9.450;2023-07-30T03:02:53;8.10;;;2.20;;
15938;SDS011;8068;51.322;9.450;2023-07-30T03:05:26;3.10;;;2.20;;
15938;SDS011;8068;51.322;9.450;2023-07-30T03:08:02;3.40;;;1.80;;
15938;SDS011;8068;51.322;9.450;2023-07-30T03:10:36;2.10;;;2.00;;
15938;SDS011;8068;51.322;9.450;2023-07-30T03:13:07;3.63;;;2.10;;
15938;SDS011;8068;51.322;9.450;2023-07-30T03:15:44;3.43;;;2.53;;
15938;SDS011;8068;51.322;9.450;2023-07-30T03:18:17;2.53;;;2.33;;
15938;SDS011;8068;51.322;9.450;2023-07-30T03:20:49;5.47;;;2.27;;
15938;SDS011;8068;51.322;9.450;2023-07-30T03:23:25;2.50;;;2.40;;
15938;SDS011;8068;51.322;9.450;2023-07-30T03:25:57;2.03;;;1.83;;
15938;SDS011;8068;51.322;9.450;2023-07-30T03:28:30;2.93;;;2.60;;
15938;SDS011;8068;51.322;9.450;2023-07-30T03:31:07;3.87;;;2.30;;
15938;SDS011;8068;51.322;9.450;2023-07-30T03:33:39;2.70;;;2.10;;
15938;SDS011;8068;51.322;9.450;2023-07-30T03:36:14;2.37;;;2.00;;
15938;SDS011;8068;51.322;9.450;2023-07-30T03:38:49;2.40;;;2.00;;
15938;SDS011;8068;51.322;9.450;2023-07-30T03:41:20;2.40;;;2.20;;
15938;SDS011;8068;51.322;9.450;2023-07-30T03:43:52;1.87;;;1.77;;
15938;SDS011;8068;51.322;9.450;2023-07-30T03:46:29;2.57;;;1.87;;
15938;SDS011;8068;51.322;9.450;2023-07-30T03:49:00;3.30;;;1.60;;
15938;SDS011;8068;51.322;9.450;2023-07-30T03:51:32;4.43;;;2.53;;
15938;SDS011;8068;51.322;9.450;2023-07-30T03:54:09;2.93;;;2.33;;
15938;SDS011;8068;51.322;9.450;2023-07-30T03:56:40;3.87;;;2.33;;
15938;SDS011;8068;51.322;9.450;2023-07-30T03:59:11;2.70;;;2.50;;
15938;SDS011;8068;51.322;9.450;2023-07-30T04:01:43;3.13;;;2.47;;
15938;SDS011;8068;51.322;9.450;2023-07-30T04:04:14;6.50;;;2.53;;
15938;SDS011;8068;51.322;9.450;2023-07-30T04:06:45;2.60;;;2.50;;
15938;SDS011;8068;51.322;9.450;2023-07-30T04:09:17;2.33;;;1.90;;
15938;SDS011;8068;51.322;9.450;2023-07-30T04:11:48;9.13;;;2.30;;
15938;SDS011;8068;51.322;9.450;2023-07-30T04:14:19;4.50;;;2.47;;
15938;SDS011;8068;51.322;9.450;2023-07-30T04:16:51;3.30;;;2.17;;
15938;SDS011;8068;51.322;9.450;2023-07-30T04:19:27;2.70;;;2.50;;
15938;SDS011;8068;51.322;9.450;2023-07-30T04:21:58;2.33;;;2.13;;
15938;SDS011;8068;51.322;9.450;2023-07-30T04:24:29;3.83;;;2.57;;
15938;SDS011;8068;51.322;9.450;2023-07-30T04:27:05;4.00;;;2.70;;
15938;SDS011;8068;51.322;9.450;2023-07-30T04:29:37;3.23;;;2.40;;
15938;SDS011;8068;51.322;9.450;2023-07-30T04:32:08;2.60;;;2.43;;
15938;SDS011;8068;51.322;9.450;2023-07-30T04:34:40;3.00;;;2.20;;
15938;SDS011;8068;51.322;9.450;2023-07-30T04:37:11;2.50;;;2.30;;
15938;SDS011;8068;51.322;9.450;2023-07-30T04:39:43;2.43;;;2.30;;
15938;SDS011;8068;51.322;9.450;2023-07-30T04:42:14;3.00;;;2.43;;
15938;SDS011;8068;51.322;9.450;2023-07-30T04:44:46;4.57;;;2.30;;
15938;SDS011;8068;51.322;9.450;2023-07-30T04:47:17;3.00;;;2.33;;
15938;SDS011;8068;51.322;9.450;2023-07-30T04:49:48;3.87;;;2.70;;
15938;SDS011;8068;51.322;9.450;2023-07-30T04:52:24;3.33;;;2.60;;
15938;SDS011;8068;51.322;9.450;2023-07-30T04:54:55;2.77;;;2.57;;
15938;SDS011;8068;51.322;9.450;2023-07-30T04:57:27;2.70;;;2.43;;
15938;SDS011;8068;51.322;9.450;2023-07-30T05:00:03;4.33;;;2.63;;
15938;SDS011;8068;51.322;9.450;2023-07-30T05:02:35;3.97;;;3.10;;
15938;SDS011;8068;51.322;9.450;2023-07-30T05:05:06;3.30;;;3.10;;
15938;SDS011;8068;51.322;9.450;2023-07-30T05:07:42;7.93;;;2.60;;
15938;SDS011;8068;51.322;9.450;2023-07-30T05:10:14;2.50;;;2.40;;
15938;SDS011;8068;51.322;9.450;2023-07-30T05:12:47;3.07;;;2.87;;
15938;SDS011;8068;51.322;9.450;2023-07-30T05:15:23;3.53;;;3.07;;
15938;SDS011;8068;51.322;9.450;2023-07-30T05:17:55;6.50;;;2.93;;
15938;SDS011;8068;51.322;9.450;2023-07-30T05:20:26;2.70;;;2.50;;
15938;SDS011;8068;51.322;9.450;2023-07-30T05:22:57;5.20;;;3.27;;
15938;SDS011;8068;51.322;9.450;2023-07-30T05:25:28;3.67;;;3.37;;
15938;SDS011;8068;51.322;9.450;2023-07-30T05:28:00;3.27;;;3.07;;
15938;SDS011;8068;51.322;9.450;2023-07-30T05:30:32;3.57;;;2.43;;
15938;SDS011;8068;51.322;9.450;2023-07-30T05:33:05;3.80;;;2.70;;
15938;SDS011;8068;51.322;9.450;2023-07-30T05:35:36;2.90;;;2.70;;
15938;SDS011;8068;51.322;9.450;2023-07-30T05:38:07;2.80;;;2.63;;
15938;SDS011;8068;51.322;9.450;2023-07-30T05:40:43;5.93;;;3.03;;
15938;SDS011;8068;51.322;9.450;2023-07-30T05:43:14;4.73;;;2.90;;
15938;SDS011;8068;51.322;9.450;2023-07-30T05:45:46;2.87;;;2.77;;
15938;SDS011;8068;51.322;9.450;2023-07-30T05:48:19;4.77;;;4.47;;
15938;SDS011;8068;51.322;9.450;2023-07-30T05:50:51;4.53;;;3.17;;
15938;SDS011;8068;51.322;9.450;2023-07-30T05:53:22;3.90;;;3.13;;
15938;SDS011;8068;51.322;9.450;2023-07-30T05:55:53;3.83;;;2.73;;
15938;SDS011;8068;51.322;9.450;2023-07-30T05:58:25;4.70;;;2.83;;
15938;SDS011;8068;51.322;9.450;2023-07-30T06:00:56;3.03;;;2.83;;
15938;SDS011;8068;51.322;9.450;2023-07-30T06:03:28;6.90;;;2.83;;
15938;SDS011;8068;51.322;9.450;2023-07-30T06:06:03;2.83;;;2.63;;
15938;SDS011;8068;51.322;9.450;2023-07-30T06:08:35;3.40;;;2.50;;
15938;SDS011;8068;51.322;9.450;2023-07-30T06:11:05;3.00;;;2.80;;
15938;SDS011;8068;51.322;9.450;2023-07-30T06:13:42;3.00;;;2.20;;
15938;SDS011;8068;51.322;9.450;2023-07-30T06:16:13;4.50;;;3.07;;
15938;SDS011;8068;51.322;9.450;2023-07-30T06:18:45;3.30;;;3.00;;
15938;SDS011;8068;51.322;9.450;2023-07-30T06:21:22;7.50;;;2.10;;
15938;SDS011;8068;51.322;9.450;2023-07-30T06:23:54;4.07;;;2.10;;
15938;SDS011;8068;51.322;9.450;2023-07-30T06:26:26;3.77;;;2.50;;
15938;SDS011;8068;51.322;9.450;2023-07-30T06:28:57;2.43;;;2.23;;
15938;SDS011;8068;51.322;9.450;2023-07-30T06:31:29;2.20;;;2.00;;
15938;SDS011;8068;51.322;9.450;2023-07-30T06:34:00;7.17;;;2.40;;
15938;SDS011;8068;51.322;9.450;2023-07-30T06:36:32;3.20;;;2.33;;
15938;SDS011;8068;51.322;9.450;2023-07-30T06:39:04;2.60;;;1.93;;
15938;SDS011;8068;51.322;9.450;2023-07-30T06:41:35;2.07;;;1.90;;
15938;SDS011;8068;51.322;9.450;2023-07-30T06:44:07;6.60;;;2.20;;
15938;SDS011;8068;51.322;9.450;2023-07-30T06:46:45;2.53;;;1.90;;
15938;SDS011;8068;51.322;9.450;2023-07-30T06:49:16;3.87;;;2.60;;
15938;SDS011;8068;51.322;9.450;2023-07-30T06:51:49;5.30;;;2.10;;
15938;SDS011;8068;51.322;9.450;2023-07-30T06:54:25;3.13;;;2.20;;
15938;SDS011;8068;51.322;9.450;2023-07-30T06:56:56;2.73;;;2.07;;
15938;SDS011;8068;51.322;9.450;2023-07-30T06:59:27;7.37;;;1.93;;
15938;SDS011;8068;51.322;9.450;2023-07-30T07:01:59;5.07;;;2.00;;
15938;SDS011;8068;51.322;9.450;2023-07-30T07:04:31;2.13;;;1.93;;
15938;SDS011;8068;51.322;9.450;2023-07-30T07:07:02;2.20;;;2.10;;
15938;SDS011;8068;51.322;9.450;2023-07-30T07:09:34;9.20;;;3.97;;
15938;SDS011;8068;51.322;9.450;2023-07-30T07:12:06;3.57;;;2.77;;
15938;SDS011;8068;51.322;9.450;2023-07-30T07:14:38;3.97;;;2.60;;
15938;SDS011;8068;51.322;9.450;2023-07-30T07:17:09;4.83;;;2.73;;
15938;SDS011;8068;51.322;9.450;2023-07-30T07:19:45;5.60;;;3.20;;
15938;SDS011;8068;51.322;9.450;2023-07-30T07:22:16;3.27;;;3.07;;
15938;SDS011;8068;51.322;9.450;2023-07-30T07:24:48;3.47;;;3.20;;
15938;SDS011;8068;51.322;9.450;2023-07-30T07:27:24;3.50;;;3.20;;
15938;SDS011;8068;51.322;9.450;2023-07-30T07:29:56;4.67;;;3.57;;
15938;SDS011;8068;51.322;9.450;2023-07-30T07:32:27;6.33;;;3.40;;
15938;SDS011;8068;51.322;9.450;2023-07-30T07:35:03;3.60;;;3.30;;
15938;SDS011;8068;51.322;9.450;2023-07-30T07:37:36;3.67;;;3.47;;
15938;SDS011;8068;51.322;9.450;2023-07-30T07:40:08;4.43;;;3.83;;
15938;SDS011;8068;51.322;9.450;2023-07-30T07:42:40;3.70;;;3.50;;
15938;SDS011;8068;51.322;9.450;2023-07-30T07:45:12;3.63;;;3.43;;
15938;SDS011;8068;51.322;9.450;2023-07-30T07:47:43;3.73;;;3.40;;
15938;SDS011;8068;51.322;9.450;2023-07-30T07:50:14;9.27;;;3.73;;
15938;SDS011;8068;51.322;9.450;2023-07-30T07:52:46;4.40;;;3.80;;
15938;SDS011;8068;51.322;9.450;2023-07-30T07:55:18;7.43;;;3.87;;
15938;SDS011;8068;51.322;9.450;2023-07-30T07:57:49;4.00;;;3.50;;
15938;SDS011;8068;51.322;9.450;2023-07-30T08:00:24;3.83;;;3.37;;
15938;SDS011;8068;51.322;9.450;2023-07-30T08:02:56;4.67;;;3.83;;
15938;SDS011;8068;51.322;9.450;2023-07-30T08:05:27;4.27;;;3.27;;
15938;SDS011;8068;51.322;9.450;2023-07-30T08:08:03;5.57;;;3.07;;
15938;SDS011;8068;51.322;9.450;2023-07-30T08:10:38;3.70;;;3.20;;
15938;SDS011;8068;51.322;9.450;2023-07-30T08:13:12;5.20;;;3.13;;
15938;SDS011;8068;51.322;9.450;2023-07-30T08:15:49;3.47;;;3.17;;
15938;SDS011;8068;51.322;9.450;2023-07-30T08:18:21;3.47;;;3.27;;
15938;SDS011;8068;51.322;9.450;2023-07-30T08:20:52;3.80;;;3.27;;
15938;SDS011;8068;51.322;9.450;2023-07-30T08:23:27;4.93;;;3.13;;
15938;SDS011;8068;51.322;9.450;2023-07-30T08:25:59;10.40;;;3.90;;
15938;SDS011;8068;51.322;9.450;2023-07-30T08:28:31;3.67;;;3.40;;
15938;SDS011;8068;51.322;9.450;2023-07-30T08:31:02;5.80;;;3.50;;
15938;SDS011;8068;51.322;9.450;2023-07-30T08:33:34;5.87;;;3.67;;
15938;SDS011;8068;51.322;9.450;2023-07-30T08:36:05;3.63;;;3.43;;
15938;SDS011;8068;51.322;9.450;2023-07-30T08:38:36;4.07;;;3.77;;
15938;SDS011;8068;51.322;9.450;2023-07-30T08:41:08;5.00;;;4.50;;
15938;SDS011;8068;51.322;9.450;2023-07-30T08:43:39;4.53;;;4.00;;
15938;SDS011;8068;51.322;9.450;2023-07-30T08:46:10;4.10;;;3.80;;
15938;SDS011;8068;51.322;9.450;2023-07-30T08:48:46;3.97;;;3.77;;
15938;SDS011;8068;51.322;9.450;2023-07-30T08:51:21;4.93;;;4.40;;
15938;SDS011;8068;51.322;9.450;2023-07-30T08:53:53;4.60;;;4.17;;
15938;SDS011;8068;51.322;9.450;2023-07-30T08:56:30;4.67;;;4.37;;
15938;SDS011;8068;51.322;9.450;2023-07-30T08:59:02;4.93;;;4.47;;
15938;SDS011;8068;51.322;9.450;2023-07-30T09:01:34;5.13;;;4.67;;
15938;SDS011;8068;51.322;9.450;2023-07-30T09:04:12;5.30;;;5.00;;
15938;SDS011;8068;51.322;9.450;2023-07-30T09:06:48;5.27;;;4.80;;
15938;SDS011;8068;51.322;9.450;2023-07-30T09:09:24;5.93;;;5.03;;
15938;SDS011;8068;51.322;9.450;2023-07-30T09:11:55;6.20;;;5.60;;
15938;SDS011;8068;51.322;9.450;2023-07-30T09:14:26;5.77;;;5.37;;
15938;SDS011;8068;51.322;9.450;2023-07-30T09:16:58;7.10;;;6.50;;
15938;SDS011;8068;51.322;9.450;2023-07-30T09:19:34;7.43;;;6.83;;
15938;SDS011;8068;51.322;9.450;2023-07-30T09:22:06;8.37;;;7.70;;
15938;SDS011;8068;51.322;9.450;2023-07-30T09:24:41;7.87;;;7.07;;
15938;SDS011;8068;51.322;9.450;2023-07-30T09:27:19;8.13;;;7.50;;
15938;SDS011;8068;51.322;9.450;2023-07-30T09:29:57;11.97;;;9.57;;
15938;SDS011;8068;51.322;9.450;2023-07-30T09:32:30;8.27;;;7.53;;
15938;SDS011;8068;51.322;9.450;2023-07-30T09:37:41;10.30;;;9.30;;
15938;SDS011;8068;51.322;9.450;2023-07-30T09:40:13;8.97;;;8.17;;
15938;SDS011;8068;51.322;9.450;2023-07-30T09:42:46;9.43;;;8.53;;
15938;SDS011;8068;51.322;9.450;2023-07-30T09:45:24;9.43;;;8.20;;
15938;SDS011;8068;51.322;9.450;2023-07-30T09:47:57;8.63;;;7.83;;
15938;SDS011;8068;51.322;9.450;2023-07-30T09:50:28;10.27;;;8.30;;
15938;SDS011;8068;51.322;9.450;2023-07-30T09:53:00;9.50;;;8.60;;
15938;SDS011;8068;51.322;9.450;2023-07-30T09:55:32;9.53;;;8.70;;
15938;SDS011;8068;51.322;9.450;2023-07-30T09:58:04;12.07;;;7.93;;
15938;SDS011;8068;51.322;9.450;2023-07-30T10:00:35;8.00;;;7.40;;
15938;SDS011;8068;51.322;9.450;2023-07-30T10:03:06;8.70;;;7.60;;
15938;SDS011;8068;51.322;9.450;2023-07-30T10:05:40;6.70;;;6.20;;
15938;SDS011;8068;51.322;9.450;2023-07-30T10:08:31;6.47;;;6.03;;
15938;SDS011;8068;51.322;9.450;2023-07-30T10:11:08;7.70;;;6.60;;
15938;SDS011;8068;51.322;9.450;2023-07-30T10:13:41;5.70;;;5.40;;
15938;SDS011;8068;51.322;9.450;2023-07-30T10:16:13;6.07;;;5.57;;
15938;SDS011;8068;51.322;9.450;2023-07-30T10:18:44;8.53;;;6.00;;
15938;SDS011;8068;51.322;9.450;2023-07-30T10:21:21;6.00;;;5.30;;
15938;SDS011;8068;51.322;9.450;2023-07-30T10:23:57;7.00;;;5.17;;
15938;SDS011;8068;51.322;9.450;2023-07-30T10:26:35;13.90;;;4.70;;
15938;SDS011;8068;51.322;9.450;2023-07-30T10:29:12;4.47;;;3.63;;
15938;SDS011;8068;51.322;9.450;2023-07-30T10:31:48;5.57;;;3.13;;
15938;SDS011;8068;51.322;9.450;2023-07-30T10:34:27;5.33;;;4.83;;
15938;SDS011;8068;51.322;9.450;2023-07-30T10:36:59;3.50;;;3.30;;
15938;SDS011;8068;51.322;9.450;2023-07-30T10:39:30;6.07;;;3.00;;
15938;SDS011;8068;51.322;9.450;2023-07-30T10:42:03;4.33;;;3.57;;
15938;SDS011;8068;51.322;9.450;2023-07-30T10:44:35;2.80;;;2.60;;
15938;SDS011;8068;51.322;9.450;2023-07-30T10:47:06;2.53;;;2.33;;
15938;SDS011;8068;51.322;9.450;2023-07-30T10:49:44;5.53;;;2.67;;
15938;SDS011;8068;51.322;9.450;2023-07-30T10:52:17;4.47;;;2.47;;
15938;SDS011;8068;51.322;9.450;2023-07-30T10:54:48;3.90;;;2.47;;
15938;SDS011;8068;51.322;9.450;2023-07-30T10:57:19;2.67;;;2.47;;
15938;SDS011;8068;51.322;9.450;2023-07-30T10:59:51;2.57;;;2.27;;
15938;SDS011;8068;51.322;9.450;2023-07-30T11:02:25;3.20;;;2.20;;
15938;SDS011;8068;51.322;9.450;2023-07-30T11:04:57;6.30;;;1.73;;
15938;SDS011;8068;51.322;9.450;2023-07-30T11:07:28;2.63;;;2.43;;
15938;SDS011;8068;51.322;9.450;2023-07-30T11:10:00;2.60;;;2.40;;
15938;SDS011;8068;51.322;9.450;2023-07-30T11:12:36;2.10;;;1.90;;
15938;SDS011;8068;51.322;9.450;2023-07-30T11:15:09;2.57;;;2.00;;
15938;SDS011;8068;51.322;9.450;2023-07-30T11:17:42;2.10;;;2.00;;
15938;SDS011;8068;51.322;9.450;2023-07-30T11:20:25;2.37;;;2.17;;
15938;SDS011;8068;51.322;9.450;2023-07-30T11:22:59;3.53;;;2.50;;
15938;SDS011;8068;51.322;9.450;2023-07-30T11:25:31;2.17;;;2.07;;
15938;SDS011;8068;51.322;9.450;2023-07-30T11:28:02;3.57;;;2.40;;
15938;SDS011;8068;51.322;9.450;2023-07-30T11:30:34;3.07;;;2.87;;
15938;SDS011;8068;51.322;9.450;2023-07-30T11:33:06;3.50;;;3.20;;
15938;SDS011;8068;51.322;9.450;2023-07-30T11:35:37;2.70;;;2.50;;
15938;SDS011;8068;51.322;9.450;2023-07-30T11:38:10;2.43;;;2.10;;
15938;SDS011;8068;51.322;9.450;2023-07-30T11:40:42;2.13;;;1.70;;
15938;SDS011;8068;51.322;9.450;2023-07-30T11:43:13;1.97;;;1.83;;
15938;SDS011;8068;51.322;9.450;2023-07-30T11:45:45;5.80;;;2.57;;
15938;SDS011;8068;51.322;9.450;2023-07-30T11:48:16;2.20;;;2.10;;
15938;SDS011;8068;51.322;9.450;2023-07-30T11:50:48;2.37;;;2.20;;
15938;SDS011;8068;51.322;9.450;2023-07-30T11:53:21;2.63;;;2.43;;
15938;SDS011;8068;51.322;9.450;2023-07-30T11:55:52;2.20;;;2.00;;
15938;SDS011;8068;51.322;9.450;2023-07-30T11:58:24;2.40;;;2.20;;
15938;SDS011;8068;51.322;9.450;2023-07-30T12:00:59;3.00;;;2.40;;
15938;SDS011;8068;51.322;9.450;2023-07-30T12:03:32;4.77;;;2.43;;
15938;SDS011;8068;51.322;9.450;2023-07-30T12:06:04;2.10;;;2.00;;
15938;SDS011;8068;51.322;9.450;2023-07-30T12:08:37;3.20;;;2.30;;
15938;SDS011;8068;51.322;9.450;2023-07-30T12:11:12;3.87;;;2.83;;
15938;SDS011;8068;51.322;9.450;2023-07-30T12:13:44;3.43;;;2.90;;
15938;SDS011;8068;51.322;9.450;2023-07-30T12:16:21;7.57;;;2.40;;
15938;SDS011;8068;51.322;9.450;2023-07-30T12:18:54;2.27;;;2.17;;
15938;SDS011;8068;51.322;9.450;2023-07-30T12:21:25;3.23;;;2.93;;
15938;SDS011;8068;51.322;9.450;2023-07-30T12:23:56;3.40;;;3.07;;
15938;SDS011;8068;51.322;9.450;2023-07-30T12:26:30;3.83;;;2.93;;
15938;SDS011;8068;51.322;9.450;2023-07-30T12:29:02;3.07;;;2.93;;
15938;SDS011;8068;51.322;9.450;2023-07-30T12:31:33;3.13;;;2.93;;
15938;SDS011;8068;51.322;9.450;2023-07-30T12:34:04;3.67;;;3.27;;
15938;SDS011;8068;51.322;9.450;2023-07-30T12:36:35;5.10;;;3.53;;
15938;SDS011;8068;51.322;9.450;2023-07-30T12:39:07;4.00;;;3.03;;
15938;SDS011;8068;51.322;9.450;2023-07-30T12:41:38;3.63;;;3.27;;
15938;SDS011;8068;51.322;9.450;2023-07-30T12:44:12;3.40;;;2.97;;
15938;SDS011;8068;51.322;9.450;2023-07-30T12:46:43;3.80;;;3.30;;
15938;SDS011;8068;51.322;9.450;2023-07-30T12:49:22;4.50;;;3.13;;
15938;SDS011;8068;51.322;9.450;2023-07-30T12:51:53;3.27;;;2.87;;
15938;SDS011;8068;51.322;9.450;2023-07-30T12:54:25;3.50;;;3.20;;
15938;SDS011;8068;51.322;9.450;2023-07-30T12:56:56;3.90;;;2.80;;
15938;SDS011;8068;51.322;9.450;2023-07-30T12:59:31;5.03;;;2.70;;
15938;SDS011;8068;51.322;9.450;2023-07-30T13:02:02;3.33;;;3.13;;
15938;SDS011;8068;51.322;9.450;2023-07-30T13:04:34;3.00;;;2.80;;
15938;SDS011;8068;51.322;9.450;2023-07-30T13:07:05;2.80;;;2.60;;
15938;SDS011;8068;51.322;9.450;2023-07-30T13:09:36;6.00;;;3.00;;
15938;SDS011;8068;51.322;9.450;2023-07-30T13:12:07;3.30;;;2.90;;
15938;SDS011;8068;51.322;9.450;2023-07-30T13:14:39;3.77;;;3.43;;
15938;SDS011;8068;51.322;9.450;2023-07-30T13:17:11;6.23;;;3.70;;
15938;SDS011;8068;51.322;9.450;2023-07-30T13:19:43;4.67;;;3.03;;
15938;SDS011;8068;51.322;9.450;2023-07-30T13:22:14;5.50;;;2.80;;
15938;SDS011;8068;51.322;9.450;2023-07-30T13:24:50;5.80;;;2.80;;
15938;SDS011;8068;51.322;9.450;2023-07-30T13:27:20;3.20;;;2.60;;
15938;SDS011;8068;51.322;9.450;2023-07-30T13:29:52;6.23;;;2.83;;
15938;SDS011;8068;51.322;9.450;2023-07-30T13:32:23;3.73;;;2.57;;
15938;SDS011;8068;51.322;9.450;2023-07-30T13:34:54;6.30;;;2.87;;
15938;SDS011;8068;51.322;9.450;2023-07-30T13:37:25;2.93;;;1.93;;
15938;SDS011;8068;51.322;9.450;2023-07-30T13:39:57;4.97;;;2.33;;
15938;SDS011;8068;51.322;9.450;2023-07-30T13:42:28;3.03;;;1.80;;
15938;SDS011;8068;51.322;9.450;2023-07-30T13:44:59;2.33;;;1.80;;
15938;SDS011;8068;51.322;9.450;2023-07-30T13:47:30;6.73;;;1.70;;
15938;SDS011;8068;51.322;9.450;2023-07-30T13:50:06;6.27;;;1.30;;
15938;SDS011;8068;51.322;9.450;2023-07-30T13:52:38;3.40;;;2.07;;
15938;SDS011;8068;51.322;9.450;2023-07-30T13:55:09;4.93;;;1.70;;
15938;SDS011;8068;51.322;9.450;2023-07-30T13:57:40;4.30;;;1.73;;
15938;SDS011;8068;51.322;9.450;2023-07-30T14:00:12;5.40;;;1.40;;
15938;SDS011;8068;51.322;9.450;2023-07-30T14:02:44;3.17;;;1.80;;
15938;SDS011;8068;51.322;9.450;2023-07-30T14:05:15;1.60;;;1.13;;
15938;SDS011;8068;51.322;9.450;2023-07-30T14:07:47;2.43;;;1.40;;
15938;SDS011;8068;51.322;9.450;2023-07-30T14:10:19;2.73;;;1.50;;
15938;SDS011;8068;51.322;9.450;2023-07-30T14:12:50;7.30;;;2.53;;
15938;SDS011;8068;51.322;9.450;2023-07-30T14:15:25;3.33;;;1.20;;
15938;SDS011;8068;51.322;9.450;2023-07-30T14:17:56;4.03;;;1.60;;
15938;SDS011;8068;51.322;9.450;2023-07-30T14:20:28;4.77;;;1.60;;
15938;SDS011;8068;51.322;9.450;2023-07-30T14:23:03;2.03;;;1.27;;
15938;SDS011;8068;51.322;9.450;2023-07-30T14:25:35;3.33;;;1.30;;
15938;SDS011;8068;51.322;9.450;2023-07-30T14:28:06;5.20;;;1.10;;
15938;SDS011;8068;51.322;9.450;2023-07-30T14:30:37;3.67;;;1.40;;
15938;SDS011;8068;51.322;9.450;2023-07-30T14:33:23;2.33;;;1.57;;
15938;SDS011;8068;51.322;9.450;2023-07-30T14:35:56;5.20;;;1.30;;
15938;SDS011;8068;51.322;9.450;2023-07-30T14:38:30;2.03;;;0.90;;
15938;SDS011;8068;51.322;9.450;2023-07-30T14:41:04;3.40;;;1.30;;
15938;SDS011;8068;51.322;9.450;2023-07-30T14:43:37;3.27;;;1.20;;
15938;SDS011;8068;51.322;9.450;2023-07-30T14:46:10;2.67;;;1.73;;
15938;SDS011;8068;51.322;9.450;2023-07-30T14:48:44;2.73;;;1.10;;
15938;SDS011;8068;51.322;9.450;2023-07-30T14:51:16;2.50;;;0.87;;
15938;SDS011;8068;51.322;9.450;2023-07-30T14:53:51;3.47;;;1.30;;
15938;SDS011;8068;51.322;9.450;2023-07-30T14:56:22;2.20;;;0.90;;
15938;SDS011;8068;51.322;9.450;2023-07-30T14:58:53;5.17;;;1.10;;
15938;SDS011;8068;51.322;9.450;2023-07-30T15:01:29;1.93;;;0.97;;
15938;SDS011;8068;51.322;9.450;2023-07-30T15:04:01;3.20;;;1.10;;
15938;SDS011;8068;51.322;9.450;2023-07-30T15:06:32;3.33;;;1.00;;
15938;SDS011;8068;51.322;9.450;2023-07-30T15:09:03;3.40;;;1.30;;
15938;SDS011;8068;51.322;9.450;2023-07-30T15:11:35;3.40;;;1.10;;
15938;SDS011;8068;51.322;9.450;2023-07-30T15:14:06;3.60;;;1.10;;
15938;SDS011;8068;51.322;9.450;2023-07-30T15:16:38;3.13;;;1.17;;
15938;SDS011;8068;51.322;9.450;2023-07-30T15:19:12;4.40;;;1.20;;
15938;SDS011;8068;51.322;9.450;2023-07-30T15:21:43;2.30;;;1.00;;
15938;SDS011;8068;51.322;9.450;2023-07-30T15:24:14;2.90;;;1.57;;
15938;SDS011;8068;51.322;9.450;2023-07-30T15:26:50;2.13;;;0.90;;
15938;SDS011;8068;51.322;9.450;2023-07-30T15:29:22;7.27;;;1.30;;
15938;SDS011;8068;51.322;9.450;2023-07-30T15:31:53;3.00;;;1.17;;
15938;SDS011;8068;51.322;9.450;2023-07-30T15:34:24;4.20;;;1.07;;
15938;SDS011;8068;51.322;9.450;2023-07-30T15:36:55;3.13;;;0.80;;